sensor_id;sensor_type;location;lat;lon;timestamp;pressure;altitude;pressure_sealevel;temperature;humidity
74637;BME280;63141;54.616;39.754;2022-09-09T00:00:14;100698.47;;;19.21;49.94
74637;BME280;63141;54.616;39.754;2022-09-09T00:03:49;100701.09;;;19.23;49.98
74637;BME280;63141;54.616;39.754;2022-09-09T00:07:20;100700.25;;;19.22;49.96
74637;BME280;63141;54.616;39.754;2022-09-09T00:10:28;100703.75;;;19.21;49.92
74637;BME280;63141;54.616;39.754;2022-09-09T00:13:37;100712.56;;;19.22;49.97
74637;BME280;63141;54.616;39.754;2022-09-09T00:16:47;100714.31;;;19.21;49.83
74637;BME280;63141;54.616;39.754;2022-09-09T00:23:17;100720.50;;;19.22;49.90
74637;BME280;63141;54.616;39.754;2022-09-09T00:26:35;100732.81;;;19.21;49.77
74637;BME280;63141;54.616;39.754;2022-09-09T00:32:47;100726.69;;;19.19;49.82
74637;BME280;63141;54.616;39.754;2022-09-09T00:35:59;100728.44;;;19.20;49.74
74637;BME280;63141;54.616;39.754;2022-09-09T00:39:02;100737.25;;;19.19;49.92
74637;BME280;63141;54.616;39.754;2022-09-09T00:42:13;100737.25;;;19.19;49.75
74637;BME280;63141;54.616;39.754;2022-09-09T00:45:36;100739.88;;;19.19;49.74
74637;BME280;63141;54.616;39.754;2022-09-09T00:55:34;100741.66;;;19.19;49.72
74637;BME280;63141;54.616;39.754;2022-09-09T00:58:54;100746.09;;;19.18;49.87
74637;BME280;63141;54.616;39.754;2022-09-09T01:02:01;100742.59;;;19.16;49.84
74637;BME280;63141;54.616;39.754;2022-09-09T01:05:17;100745.22;;;19.18;49.60
74637;BME280;63141;54.616;39.754;2022-09-09T01:12:02;100748.75;;;19.17;49.76
74637;BME280;63141;54.616;39.754;2022-09-09T01:15:10;100739.94;;;19.16;49.88
74637;BME280;63141;54.616;39.754;2022-09-09T01:18:22;100746.16;;;19.15;49.68
74637;BME280;63141;54.616;39.754;2022-09-09T01:21:38;100752.28;;;19.17;49.65
74637;BME280;63141;54.616;39.754;2022-09-09T01:28:32;100748.78;;;19.15;49.91
74637;BME280;63141;54.616;39.754;2022-09-09T01:32:35;100757.56;;;19.16;49.75
74637;BME280;63141;54.616;39.754;2022-09-09T01:38:32;100755.81;;;19.15;49.61
74637;BME280;63141;54.616;39.754;2022-09-09T01:41:36;100763.72;;;19.15;49.87
74637;BME280;63141;54.616;39.754;2022-09-09T01:44:41;100762.88;;;19.14;49.66
74637;BME280;63141;54.616;39.754;2022-09-09T01:47:43;100760.22;;;19.14;49.83
74637;BME280;63141;54.616;39.754;2022-09-09T01:50:53;100763.72;;;19.15;49.81
74637;BME280;63141;54.616;39.754;2022-09-09T01:53:55;100768.16;;;19.14;49.78
74637;BME280;63141;54.616;39.754;2022-09-09T02:00:10;100778.72;;;19.14;49.48
74637;BME280;63141;54.616;39.754;2022-09-09T02:03:31;100778.72;;;19.14;49.73
74637;BME280;63141;54.616;39.754;2022-09-09T02:06:45;100776.97;;;19.13;49.76
74637;BME280;63141;54.616;39.754;2022-09-09T02:10:28;100779.63;;;19.13;49.75
74637;BME280;63141;54.616;39.754;2022-09-09T02:13:39;100785.78;;;19.14;49.84
74637;BME280;63141;54.616;39.754;2022-09-09T02:16:54;100786.63;;;19.14;49.61
74637;BME280;63141;54.616;39.754;2022-09-09T02:20:07;100790.19;;;19.13;49.61
74637;BME280;63141;54.616;39.754;2022-09-09T02:23:36;100791.97;;;19.13;49.59
74637;BME280;63141;54.616;39.754;2022-09-09T02:26:44;100792.81;;;19.13;49.75
74637;BME280;63141;54.616;39.754;2022-09-09T02:29:51;100791.06;;;19.12;49.56
74637;BME280;63141;54.616;39.754;2022-09-09T02:33:06;100793.72;;;19.12;49.67
74637;BME280;63141;54.616;39.754;2022-09-09T02:36:29;100802.53;;;19.11;49.78
74637;BME280;63141;54.616;39.754;2022-09-09T02:39:32;100802.53;;;19.11;49.49
74637;BME280;63141;54.616;39.754;2022-09-09T02:42:44;100805.16;;;19.13;49.68
74637;BME280;63141;54.616;39.754;2022-09-09T02:56:06;100828.94;;;19.11;49.69
74637;BME280;63141;54.616;39.754;2022-09-09T02:59:13;100828.09;;;19.11;49.68
74637;BME280;63141;54.616;39.754;2022-09-09T03:02:15;100830.72;;;19.11;49.87
74637;BME280;63141;54.616;39.754;2022-09-09T03:05:26;100833.38;;;19.09;49.53
74637;BME280;63141;54.616;39.754;2022-09-09T03:08:29;100838.66;;;19.09;49.86
74637;BME280;63141;54.616;39.754;2022-09-09T03:11:32;100841.28;;;19.09;49.60
74637;BME280;63141;54.616;39.754;2022-09-09T03:14:34;100848.31;;;19.10;49.57
74637;BME280;63141;54.616;39.754;2022-09-09T03:17:36;100845.72;;;19.09;49.77
74637;BME280;63141;54.616;39.754;2022-09-09T03:20:38;100851.84;;;19.09;49.60
74637;BME280;63141;54.616;39.754;2022-09-09T03:23:40;100857.13;;;19.09;49.72
74637;BME280;63141;54.616;39.754;2022-09-09T03:26:42;100861.50;;;19.10;49.55
74637;BME280;63141;54.616;39.754;2022-09-09T03:29:49;100862.41;;;19.09;49.53
74637;BME280;63141;54.616;39.754;2022-09-09T03:32:57;100865.97;;;19.08;49.75
74637;BME280;63141;54.616;39.754;2022-09-09T03:36:04;100859.78;;;19.08;49.70
74637;BME280;63141;54.616;39.754;2022-09-09T03:39:06;100872.13;;;19.09;49.62
74637;BME280;63141;54.616;39.754;2022-09-09T03:42:08;100875.63;;;19.09;49.51
74637;BME280;63141;54.616;39.754;2022-09-09T03:45:11;100878.25;;;19.09;49.71
74637;BME280;63141;54.616;39.754;2022-09-09T03:48:18;100882.69;;;19.09;49.49
74637;BME280;63141;54.616;39.754;2022-09-09T03:51:20;100877.41;;;19.09;49.57
74637;BME280;63141;54.616;39.754;2022-09-09T03:54:24;100884.44;;;19.08;49.56
74637;BME280;63141;54.616;39.754;2022-09-09T03:57:25;100887.09;;;19.08;49.60
74637;BME280;63141;54.616;39.754;2022-09-09T04:00:27;100886.19;;;19.08;49.74
74637;BME280;63141;54.616;39.754;2022-09-09T04:03:34;100893.25;;;19.07;49.40
74637;BME280;63141;54.616;39.754;2022-09-09T04:06:36;100896.75;;;19.08;49.63
74637;BME280;63141;54.616;39.754;2022-09-09T04:09:37;100900.28;;;19.08;49.62
74637;BME280;63141;54.616;39.754;2022-09-09T04:12:39;100911.72;;;19.07;49.53
74637;BME280;63141;54.616;39.754;2022-09-09T04:15:40;100906.44;;;19.07;49.63
74637;BME280;63141;54.616;39.754;2022-09-09T04:18:42;100911.72;;;19.07;49.53
74637;BME280;63141;54.616;39.754;2022-09-09T04:21:44;100906.44;;;19.07;49.54
74637;BME280;63141;54.616;39.754;2022-09-09T04:24:46;100913.50;;;19.08;49.50
74637;BME280;63141;54.616;39.754;2022-09-09T04:27:53;100919.66;;;19.07;49.31
74637;BME280;63141;54.616;39.754;2022-09-09T04:30:56;100912.59;;;19.08;49.52
74637;BME280;63141;54.616;39.754;2022-09-09T04:34:00;100912.59;;;19.08;49.63
74637;BME280;63141;54.616;39.754;2022-09-09T04:37:06;100910.88;;;19.07;49.66
74637;BME280;63141;54.616;39.754;2022-09-09T04:40:08;100920.56;;;19.06;49.59
74637;BME280;63141;54.616;39.754;2022-09-09T04:43:14;100922.28;;;19.07;49.89
74637;BME280;63141;54.616;39.754;2022-09-09T04:46:17;100922.28;;;19.07;49.96
74637;BME280;63141;54.616;39.754;2022-09-09T04:49:19;100928.44;;;19.08;50.10
74637;BME280;63141;54.616;39.754;2022-09-09T04:52:20;100925.78;;;19.08;50.08
74637;BME280;63141;54.616;39.754;2022-09-09T04:55:22;100928.47;;;19.06;50.27
74637;BME280;63141;54.616;39.754;2022-09-09T04:58:23;100932.84;;;19.07;50.19
74637;BME280;63141;54.616;39.754;2022-09-09T05:01:27;100936.41;;;19.06;50.27
74637;BME280;63141;54.616;39.754;2022-09-09T05:04:35;100938.13;;;19.07;50.38
74637;BME280;63141;54.616;39.754;2022-09-09T05:07:40;100946.06;;;19.07;50.66
74637;BME280;63141;54.616;39.754;2022-09-09T05:10:43;100942.56;;;19.07;50.55
74637;BME280;63141;54.616;39.754;2022-09-09T05:13:46;100949.59;;;19.06;50.53
74637;BME280;63141;54.616;39.754;2022-09-09T05:16:48;100946.06;;;19.05;50.52
74637;BME280;63141;54.616;39.754;2022-09-09T05:19:51;100947.84;;;19.07;50.54
74637;BME280;63141;54.616;39.754;2022-09-09T05:22:56;100953.13;;;19.07;50.74
74637;BME280;63141;54.616;39.754;2022-09-09T05:26:01;100957.53;;;19.06;50.50
74637;BME280;63141;54.616;39.754;2022-09-09T05:29:03;100959.25;;;19.07;50.71
74637;BME280;63141;54.616;39.754;2022-09-09T05:32:06;100964.56;;;19.05;50.37
74637;BME280;63141;54.616;39.754;2022-09-09T05:35:09;100963.69;;;19.05;50.35
74637;BME280;63141;54.616;39.754;2022-09-09T05:38:11;100966.31;;;19.05;50.56
74637;BME280;63141;54.616;39.754;2022-09-09T05:41:13;100967.19;;;19.05;50.52
74637;BME280;63141;54.616;39.754;2022-09-09T05:44:17;100971.59;;;19.05;50.35
74637;BME280;63141;54.616;39.754;2022-09-09T05:47:18;100976.88;;;19.05;50.33
74637;BME280;63141;54.616;39.754;2022-09-09T05:50:20;100976.88;;;19.05;50.45
74637;BME280;63141;54.616;39.754;2022-09-09T05:53:22;100978.66;;;19.06;50.45
74637;BME280;63141;54.616;39.754;2022-09-09T05:56:24;100980.44;;;19.04;50.47
74637;BME280;63141;54.616;39.754;2022-09-09T05:59:27;100987.44;;;19.05;50.43
74637;BME280;63141;54.616;39.754;2022-09-09T06:02:33;100988.34;;;19.04;50.55
74637;BME280;63141;54.616;39.754;2022-09-09T06:05:35;100992.72;;;19.05;50.27
74637;BME280;63141;54.616;39.754;2022-09-09T06:08:41;100991.00;;;19.04;50.34
74637;BME280;63141;54.616;39.754;2022-09-09T06:11:45;100991.00;;;19.04;50.61
74637;BME280;63141;54.616;39.754;2022-09-09T06:14:48;100988.34;;;19.04;50.51
74637;BME280;63141;54.616;39.754;2022-09-09T06:17:54;100987.44;;;19.05;50.42
74637;BME280;63141;54.616;39.754;2022-09-09T06:20:58;100984.81;;;19.05;50.54
74637;BME280;63141;54.616;39.754;2022-09-09T06:24:02;100990.09;;;19.05;50.45
74637;BME280;63141;54.616;39.754;2022-09-09T06:27:04;100992.72;;;19.05;50.50
74637;BME280;63141;54.616;39.754;2022-09-09T06:30:10;100998.91;;;19.04;50.54
74637;BME280;63141;54.616;39.754;2022-09-09T06:33:12;100998.00;;;19.05;50.56
74637;BME280;63141;54.616;39.754;2022-09-09T06:36:19;101005.06;;;19.06;50.56
74637;BME280;63141;54.616;39.754;2022-09-09T06:39:21;100998.88;;;19.05;50.61
74637;BME280;63141;54.616;39.754;2022-09-09T06:42:22;101005.06;;;19.06;50.70
74637;BME280;63141;54.616;39.754;2022-09-09T06:45:24;100999.78;;;19.06;50.77
74637;BME280;63141;54.616;39.754;2022-09-09T06:48:30;101005.06;;;19.06;50.83
74637;BME280;63141;54.616;39.754;2022-09-09T06:51:37;101006.78;;;19.07;50.84
74637;BME280;63141;54.616;39.754;2022-09-09T06:54:45;101011.19;;;19.07;50.88
74637;BME280;63141;54.616;39.754;2022-09-09T06:57:47;101014.69;;;19.07;51.00
74637;BME280;63141;54.616;39.754;2022-09-09T07:01:05;101015.56;;;19.08;50.97
74637;BME280;63141;54.616;39.754;2022-09-09T07:04:13;101024.41;;;19.08;50.95
74637;BME280;63141;54.616;39.754;2022-09-09T07:07:17;101023.50;;;19.08;51.05
74637;BME280;63141;54.616;39.754;2022-09-09T07:10:19;101020.00;;;19.07;51.12
74637;BME280;63141;54.616;39.754;2022-09-09T07:13:25;101025.25;;;19.09;51.15
74637;BME280;63141;54.616;39.754;2022-09-09T07:16:28;101025.25;;;19.09;51.20
74637;BME280;63141;54.616;39.754;2022-09-09T07:19:33;101024.41;;;19.08;51.08
74637;BME280;63141;54.616;39.754;2022-09-09T07:22:36;101029.63;;;19.10;51.23
74637;BME280;63141;54.616;39.754;2022-09-09T07:25:44;101029.69;;;19.08;51.13
74637;BME280;63141;54.616;39.754;2022-09-09T07:28:48;101035.81;;;19.09;51.11
74637;BME280;63141;54.616;39.754;2022-09-09T07:31:49;101035.81;;;19.09;51.27
74637;BME280;63141;54.616;39.754;2022-09-09T07:34:57;101050.78;;;19.08;51.30
74637;BME280;63141;54.616;39.754;2022-09-09T07:38:01;101041.09;;;19.09;51.23
74637;BME280;63141;54.616;39.754;2022-09-09T07:41:05;101049.91;;;19.08;51.28
74637;BME280;63141;54.616;39.754;2022-09-09T07:44:13;101044.63;;;19.08;51.16
74637;BME280;63141;54.616;39.754;2022-09-09T07:47:16;101046.38;;;19.07;51.26
74637;BME280;63141;54.616;39.754;2022-09-09T07:50:22;101056.97;;;19.05;51.18
74637;BME280;63141;54.616;39.754;2022-09-09T07:53:25;101056.94;;;19.07;51.29
74637;BME280;63141;54.616;39.754;2022-09-09T07:56:28;101051.66;;;19.07;51.19
74637;BME280;63141;54.616;39.754;2022-09-09T07:59:30;101057.84;;;19.06;51.38
74637;BME280;63141;54.616;39.754;2022-09-09T08:02:35;101060.47;;;19.08;51.18
74637;BME280;63141;54.616;39.754;2022-09-09T08:05:37;101059.59;;;19.07;51.14
74637;BME280;63141;54.616;39.754;2022-09-09T08:08:41;101065.75;;;19.08;50.90
74637;BME280;63141;54.616;39.754;2022-09-09T08:11:44;101074.56;;;19.07;51.19
74637;BME280;63141;54.616;39.754;2022-09-09T08:14:46;101065.78;;;19.06;51.04
74637;BME280;63141;54.616;39.754;2022-09-09T08:17:47;101067.53;;;19.05;51.34
74637;BME280;63141;54.616;39.754;2022-09-09T08:20:50;101069.28;;;19.05;51.15
74637;BME280;63141;54.616;39.754;2022-09-09T08:23:52;101071.94;;;19.05;51.29
74637;BME280;63141;54.616;39.754;2022-09-09T08:26:58;101073.69;;;19.06;50.99
74637;BME280;63141;54.616;39.754;2022-09-09T08:29:59;101073.69;;;19.06;50.96
74637;BME280;63141;54.616;39.754;2022-09-09T08:33:03;101071.94;;;19.05;50.96
74637;BME280;63141;54.616;39.754;2022-09-09T08:36:06;101074.56;;;19.07;51.04
74637;BME280;63141;54.616;39.754;2022-09-09T08:39:09;101074.56;;;19.07;50.98
74637;BME280;63141;54.616;39.754;2022-09-09T08:45:33;101084.25;;;19.06;51.02
74637;BME280;63141;54.616;39.754;2022-09-09T08:48:40;101085.13;;;19.07;51.02
74637;BME280;63141;54.616;39.754;2022-09-09T08:51:45;101080.75;;;19.04;50.84
74637;BME280;63141;54.616;39.754;2022-09-09T08:54:49;101082.50;;;19.05;50.84
74637;BME280;63141;54.616;39.754;2022-09-09T08:57:54;101082.50;;;19.05;50.75
74637;BME280;63141;54.616;39.754;2022-09-09T09:04:36;101089.53;;;19.06;50.84
74637;BME280;63141;54.616;39.754;2022-09-09T09:11:05;101091.31;;;19.04;50.73
74637;BME280;63141;54.616;39.754;2022-09-09T09:14:23;101087.78;;;19.05;50.74
74637;BME280;63141;54.616;39.754;2022-09-09T09:17:31;101086.91;;;19.04;50.68
74637;BME280;63141;54.616;39.754;2022-09-09T09:20:58;101092.19;;;19.04;50.70
74637;BME280;63141;54.616;39.754;2022-09-09T09:24:01;101083.41;;;19.02;50.87
74637;BME280;63141;54.616;39.754;2022-09-09T09:27:15;101091.31;;;19.04;50.91
74637;BME280;63141;54.616;39.754;2022-09-09T09:30:25;101086.91;;;19.04;50.75
74637;BME280;63141;54.616;39.754;2022-09-09T09:36:53;101082.50;;;19.05;50.84
74637;BME280;63141;54.616;39.754;2022-09-09T09:39:55;101078.13;;;19.04;50.80
74637;BME280;63141;54.616;39.754;2022-09-09T09:42:59;101076.34;;;19.04;50.80
74637;BME280;63141;54.616;39.754;2022-09-09T09:46:16;101078.13;;;19.04;50.88
74637;BME280;63141;54.616;39.754;2022-09-09T09:49:19;101080.75;;;19.04;50.99
74637;BME280;63141;54.616;39.754;2022-09-09T09:52:23;101086.03;;;19.04;50.78
74637;BME280;63141;54.616;39.754;2022-09-09T09:55:26;101081.63;;;19.03;50.78
74637;BME280;63141;54.616;39.754;2022-09-09T09:58:32;101091.31;;;19.04;50.64
74637;BME280;63141;54.616;39.754;2022-09-09T10:01:36;101080.75;;;19.04;50.80
74637;BME280;63141;54.616;39.754;2022-09-09T10:04:47;101088.69;;;19.04;50.72
74637;BME280;63141;54.616;39.754;2022-09-09T10:08:12;101102.75;;;19.04;50.54
74637;BME280;63141;54.616;39.754;2022-09-09T10:14:30;101097.47;;;19.03;50.73
74637;BME280;63141;54.616;39.754;2022-09-09T10:18:25;101100.13;;;19.03;50.69
74637;BME280;63141;54.616;39.754;2022-09-09T10:34:56;101111.59;;;19.03;50.43
74637;BME280;63141;54.616;39.754;2022-09-09T10:38:15;101113.31;;;19.03;50.50
74637;BME280;63141;54.616;39.754;2022-09-09T10:45:17;101123.00;;;19.02;50.42
74637;BME280;63141;54.616;39.754;2022-09-09T10:55:17;101124.75;;;19.05;50.40
74637;BME280;63141;54.616;39.754;2022-09-09T10:58:54;101111.53;;;19.07;50.40
74637;BME280;63141;54.616;39.754;2022-09-09T11:05:05;101122.97;;;19.07;50.22
74637;BME280;63141;54.616;39.754;2022-09-09T11:08:17;101132.66;;;19.07;50.24
74637;BME280;63141;54.616;39.754;2022-09-09T11:17:57;101133.53;;;19.07;50.12
74637;BME280;63141;54.616;39.754;2022-09-09T11:21:02;101117.69;;;19.07;50.17
74637;BME280;63141;54.616;39.754;2022-09-09T11:24:12;101117.69;;;19.05;50.11
74637;BME280;63141;54.616;39.754;2022-09-09T11:41:15;101134.44;;;19.04;50.25
74637;BME280;63141;54.616;39.754;2022-09-09T11:44:20;101133.56;;;19.04;50.15
74637;BME280;63141;54.616;39.754;2022-09-09T11:47:28;101138.84;;;19.04;50.11
74637;BME280;63141;54.616;39.754;2022-09-09T11:50:36;101137.97;;;19.03;50.17
74637;BME280;63141;54.616;39.754;2022-09-09T11:53:54;101128.28;;;19.04;50.12
74637;BME280;63141;54.616;39.754;2022-09-09T11:56:56;101131.81;;;19.03;50.06
74637;BME280;63141;54.616;39.754;2022-09-09T11:59:58;101135.34;;;19.02;49.97
74637;BME280;63141;54.616;39.754;2022-09-09T12:03:00;101137.13;;;19.01;50.04
74637;BME280;63141;54.616;39.754;2022-09-09T12:06:30;101137.09;;;19.03;49.99
74637;BME280;63141;54.616;39.754;2022-09-09T12:13:28;101141.50;;;19.01;49.94
74637;BME280;63141;54.616;39.754;2022-09-09T12:16:33;101131.84;;;19.00;50.08
74637;BME280;63141;54.616;39.754;2022-09-09T12:19:35;101132.72;;;19.00;50.04
74637;BME280;63141;54.616;39.754;2022-09-09T12:32:24;101130.06;;;19.00;49.78
74637;BME280;63141;54.616;39.754;2022-09-09T12:35:27;101124.84;;;18.99;50.14
74637;BME280;63141;54.616;39.754;2022-09-09T12:38:40;101119.56;;;18.99;50.08
74637;BME280;63141;54.616;39.754;2022-09-09T12:41:51;101125.69;;;18.99;50.02
74637;BME280;63141;54.616;39.754;2022-09-09T12:44:59;101125.69;;;18.99;50.28
74637;BME280;63141;54.616;39.754;2022-09-09T12:48:04;101134.50;;;18.98;50.17
74637;BME280;63141;54.616;39.754;2022-09-09T12:51:19;101136.25;;;18.99;50.10
74637;BME280;63141;54.616;39.754;2022-09-09T12:54:22;101133.63;;;18.98;50.15
74637;BME280;63141;54.616;39.754;2022-09-09T12:57:25;101135.41;;;18.99;50.25
74637;BME280;63141;54.616;39.754;2022-09-09T13:00:27;101136.25;;;18.99;50.09
74637;BME280;63141;54.616;39.754;2022-09-09T13:03:42;101133.63;;;18.99;50.14
74637;BME280;63141;54.616;39.754;2022-09-09T13:06:44;101130.97;;;18.98;50.14
74637;BME280;63141;54.616;39.754;2022-09-09T13:09:47;101123.06;;;18.98;50.33
74637;BME280;63141;54.616;39.754;2022-09-09T13:12:50;101117.78;;;18.98;50.25
74637;BME280;63141;54.616;39.754;2022-09-09T13:15:54;101123.94;;;18.98;50.43
74637;BME280;63141;54.616;39.754;2022-09-09T13:18:56;101123.06;;;18.98;50.67
74637;BME280;63141;54.616;39.754;2022-09-09T13:21:58;101124.84;;;18.96;50.38
74637;BME280;63141;54.616;39.754;2022-09-09T13:28:22;101124.84;;;18.97;50.04
74637;BME280;63141;54.616;39.754;2022-09-09T13:31:28;101123.97;;;18.97;50.61
74637;BME280;63141;54.616;39.754;2022-09-09T13:34:33;101131.00;;;18.96;50.54
74637;BME280;63141;54.616;39.754;2022-09-09T13:37:37;101137.19;;;18.97;50.68
74637;BME280;63141;54.616;39.754;2022-09-09T13:40:39;101124.84;;;18.96;50.30
74637;BME280;63141;54.616;39.754;2022-09-09T13:43:45;101125.72;;;18.96;50.30
74637;BME280;63141;54.616;39.754;2022-09-09T13:47:00;101131.91;;;18.95;50.39
74637;BME280;63141;54.616;39.754;2022-09-09T13:50:25;101131.00;;;18.96;50.27
74637;BME280;63141;54.616;39.754;2022-09-09T13:53:27;101131.91;;;18.94;50.24
74637;BME280;63141;54.616;39.754;2022-09-09T13:56:29;101132.78;;;18.94;50.35
74637;BME280;63141;54.616;39.754;2022-09-09T13:59:31;101125.75;;;18.93;50.11
74637;BME280;63141;54.616;39.754;2022-09-09T14:02:35;101127.50;;;18.94;50.34
74637;BME280;63141;54.616;39.754;2022-09-09T14:05:36;101124.00;;;18.94;50.26
74637;BME280;63141;54.616;39.754;2022-09-09T14:08:41;101124.03;;;18.92;50.28
74637;BME280;63141;54.616;39.754;2022-09-09T14:11:43;101124.00;;;18.94;50.22
74637;BME280;63141;54.616;39.754;2022-09-09T14:14:45;101124.03;;;18.92;50.22
74637;BME280;63141;54.616;39.754;2022-09-09T14:17:46;101126.66;;;18.92;50.20
74637;BME280;63141;54.616;39.754;2022-09-09T14:20:49;101127.53;;;18.93;50.27
74637;BME280;63141;54.616;39.754;2022-09-09T14:23:52;101130.16;;;18.93;50.13
74637;BME280;63141;54.616;39.754;2022-09-09T14:26:58;101128.41;;;18.92;50.28
74637;BME280;63141;54.616;39.754;2022-09-09T14:29:59;101133.69;;;18.92;50.33
74637;BME280;63141;54.616;39.754;2022-09-09T14:33:01;101138.97;;;18.92;50.25
74637;BME280;63141;54.616;39.754;2022-09-09T14:36:03;101133.69;;;18.92;50.20
74637;BME280;63141;54.616;39.754;2022-09-09T14:39:05;101139.88;;;18.92;50.25
74637;BME280;63141;54.616;39.754;2022-09-09T14:42:06;101135.47;;;18.91;50.20
74637;BME280;63141;54.616;39.754;2022-09-09T14:45:08;101144.25;;;18.92;50.21
74637;BME280;63141;54.616;39.754;2022-09-09T14:48:10;101145.16;;;18.91;50.02
74637;BME280;63141;54.616;39.754;2022-09-09T14:51:16;101138.09;;;18.91;50.13
74637;BME280;63141;54.616;39.754;2022-09-09T14:54:18;101138.09;;;18.90;50.27
74637;BME280;63141;54.616;39.754;2022-09-09T14:57:19;101140.75;;;18.90;50.17
74637;BME280;63141;54.616;39.754;2022-09-09T15:00:21;101146.03;;;18.90;49.99
74637;BME280;63141;54.616;39.754;2022-09-09T15:03:28;101147.78;;;18.91;50.14
74637;BME280;63141;54.616;39.754;2022-09-09T15:06:32;101145.16;;;18.89;50.52
74637;BME280;63141;54.616;39.754;2022-09-09T15:09:34;101150.44;;;18.89;50.01
74637;BME280;63141;54.616;39.754;2022-09-09T15:12:35;101153.94;;;18.90;50.09
74637;BME280;63141;54.616;39.754;2022-09-09T15:15:37;101158.34;;;18.89;50.09
74637;BME280;63141;54.616;39.754;2022-09-09T15:18:39;101150.47;;;18.88;49.97
74637;BME280;63141;54.616;39.754;2022-09-09T15:21:43;101153.09;;;18.88;50.01
74637;BME280;63141;54.616;39.754;2022-09-09T15:24:45;101153.09;;;18.88;50.08
74637;BME280;63141;54.616;39.754;2022-09-09T15:27:46;101165.41;;;18.89;50.01
74637;BME280;63141;54.616;39.754;2022-09-09T15:30:49;101161.03;;;18.88;49.92
74637;BME280;63141;54.616;39.754;2022-09-09T15:33:53;101165.44;;;18.86;50.06
74637;BME280;63141;54.616;39.754;2022-09-09T15:36:55;101169.81;;;18.87;50.05
74637;BME280;63141;54.616;39.754;2022-09-09T15:39:56;101168.94;;;18.86;49.98
74637;BME280;63141;54.616;39.754;2022-09-09T15:42:59;101165.44;;;18.86;50.00
74637;BME280;63141;54.616;39.754;2022-09-09T15:46:21;101174.22;;;18.88;49.93
74637;BME280;63141;54.616;39.754;2022-09-09T15:49:26;101172.47;;;18.87;49.95
74637;BME280;63141;54.616;39.754;2022-09-09T15:52:27;101187.44;;;18.86;49.96
74637;BME280;63141;54.616;39.754;2022-09-09T15:55:29;101180.38;;;18.85;49.90
74637;BME280;63141;54.616;39.754;2022-09-09T15:58:30;101186.56;;;18.86;50.04
74637;BME280;63141;54.616;39.754;2022-09-09T16:01:33;101189.19;;;18.86;49.71
74637;BME280;63141;54.616;39.754;2022-09-09T16:04:41;101190.94;;;18.85;49.91
74637;BME280;63141;54.616;39.754;2022-09-09T16:07:42;101197.13;;;18.86;50.00
74637;BME280;63141;54.616;39.754;2022-09-09T16:10:46;101196.22;;;18.85;49.95
74637;BME280;63141;54.616;39.754;2022-09-09T16:13:49;101206.78;;;18.85;49.81
74637;BME280;63141;54.616;39.754;2022-09-09T16:16:51;101208.56;;;18.84;50.20
74637;BME280;63141;54.616;39.754;2022-09-09T16:19:53;101213.81;;;18.84;49.79
74637;BME280;63141;54.616;39.754;2022-09-09T16:23:13;101215.59;;;18.84;49.82
74637;BME280;63141;54.616;39.754;2022-09-09T16:26:16;101223.53;;;18.84;49.89
74637;BME280;63141;54.616;39.754;2022-09-09T16:29:18;101225.28;;;18.83;49.68
74637;BME280;63141;54.616;39.754;2022-09-09T16:32:20;101227.03;;;18.84;49.83
74637;BME280;63141;54.616;39.754;2022-09-09T16:35:21;101235.84;;;18.83;49.73
74637;BME280;63141;54.616;39.754;2022-09-09T16:38:23;101234.09;;;18.82;49.76
74637;BME280;63141;54.616;39.754;2022-09-09T16:41:26;101237.63;;;18.83;49.74
74637;BME280;63141;54.616;39.754;2022-09-09T16:44:30;101242.91;;;18.81;49.64
74637;BME280;63141;54.616;39.754;2022-09-09T16:47:32;101239.34;;;18.82;49.90
74637;BME280;63141;54.616;39.754;2022-09-09T16:50:33;101236.72;;;18.82;49.91
74637;BME280;63141;54.616;39.754;2022-09-09T16:53:35;101245.53;;;18.81;49.90
74637;BME280;63141;54.616;39.754;2022-09-09T16:59:58;101240.25;;;18.81;49.89
74637;BME280;63141;54.616;39.754;2022-09-09T17:03:05;101245.53;;;18.81;49.62
74637;BME280;63141;54.616;39.754;2022-09-09T17:06:14;101248.19;;;18.81;49.76
74637;BME280;63141;54.616;39.754;2022-09-09T17:09:19;101257.88;;;18.81;49.80
74637;BME280;63141;54.616;39.754;2022-09-09T17:12:21;101246.41;;;18.80;49.84
74637;BME280;63141;54.616;39.754;2022-09-09T17:15:23;101262.25;;;18.80;49.82
74637;BME280;63141;54.616;39.754;2022-09-09T17:18:26;101261.38;;;18.80;49.75
74637;BME280;63141;54.616;39.754;2022-09-09T17:21:30;101265.78;;;18.79;49.69
74637;BME280;63141;54.616;39.754;2022-09-09T17:24:31;101267.53;;;18.80;49.70
74637;BME280;63141;54.616;39.754;2022-09-09T17:27:35;101270.16;;;18.80;49.82
74637;BME280;63141;54.616;39.754;2022-09-09T17:30:36;101272.81;;;18.80;49.78
74637;BME280;63141;54.616;39.754;2022-09-09T17:33:40;101269.34;;;18.78;49.78
74637;BME280;63141;54.616;39.754;2022-09-09T17:36:42;101277.22;;;18.80;49.78
74637;BME280;63141;54.616;39.754;2022-09-09T17:39:44;101285.16;;;18.78;49.71
74637;BME280;63141;54.616;39.754;2022-09-09T17:42:45;101286.91;;;18.79;49.82
74637;BME280;63141;54.616;39.754;2022-09-09T17:45:48;101286.03;;;18.79;49.77
74637;BME280;63141;54.616;39.754;2022-09-09T17:48:52;101292.19;;;18.78;49.71
74637;BME280;63141;54.616;39.754;2022-09-09T17:51:55;101290.44;;;18.78;49.75
74637;BME280;63141;54.616;39.754;2022-09-09T17:54:57;101290.44;;;18.78;49.84
74637;BME280;63141;54.616;39.754;2022-09-09T17:57:59;101290.44;;;18.78;49.67
74637;BME280;63141;54.616;39.754;2022-09-09T18:01:12;101294.81;;;18.79;49.67